EAL98 KOMA-KSEA
Flight info
| Callsign | EAL98 |
|---|---|
| Flight time | N/A |
| Altitude | 38000 |
| Route | ONL KD90U HLN MLP GLASR3 |
| Aircraft | L101/H-SDFHIWXY/S |
Departure
| Time | 2026-05-03 20:45 |
|---|---|
| Airport | Eppley Airfield (KOMA) |
Arrival
| Time | N/A |
|---|---|
| Airport | Seattle–Tacoma International Airport (KSEA) |
| Time | Latitude | Longitude | Altitude | Speed | Heading |
|---|---|---|---|---|---|
| 2026-05-03 20:15 | 41.30187 | -95.89910 | 989 ft | 0 kts | 162° |
| 2026-05-03 20:36 | 41.30205 | -95.89917 | 994 ft | 4 kts | 162° |
| 2026-05-03 20:37 | 41.30230 | -95.89928 | 996 ft | 4 kts | 162° |
| 2026-05-03 20:37 | 41.30256 | -95.89938 | 993 ft | 4 kts | 162° |
| 2026-05-03 20:37 | 41.30273 | -95.89945 | 990 ft | 0 kts | 162° |
| 2026-05-03 20:41 | 41.30267 | -95.89940 | 998 ft | 2 kts | 144° |
| 2026-05-03 20:41 | 41.30264 | -95.89914 | 998 ft | 4 kts | 74° |
| 2026-05-03 20:41 | 41.30292 | -95.89867 | 991 ft | 9 kts | 50° |
| 2026-05-03 20:42 | 41.30306 | -95.89779 | 996 ft | 12 kts | 117° |
| 2026-05-03 20:42 | 41.30230 | -95.89691 | 993 ft | 17 kts | 145° |
| 2026-05-03 20:42 | 41.30119 | -95.89585 | 994 ft | 22 kts | 144° |
| 2026-05-03 20:42 | 41.29987 | -95.89462 | 991 ft | 24 kts | 145° |
| 2026-05-03 20:43 | 41.29843 | -95.89327 | 995 ft | 26 kts | 144° |
| 2026-05-03 20:43 | 41.29692 | -95.89183 | 993 ft | 28 kts | 144° |
| 2026-05-03 20:43 | 41.29532 | -95.89030 | 992 ft | 29 kts | 144° |
| 2026-05-03 20:43 | 41.29364 | -95.88868 | 995 ft | 29 kts | 145° |
| 2026-05-03 20:44 | 41.29245 | -95.88752 | 994 ft | 13 kts | 134° |
| 2026-05-03 20:44 | 41.29237 | -95.88682 | 995 ft | 13 kts | 69° |
| 2026-05-03 20:44 | 41.29320 | -95.88650 | 991 ft | 13 kts | 330° |
| 2026-05-03 20:44 | 41.29405 | -95.88728 | 994 ft | 43 kts | 323° |
| 2026-05-03 20:45 | 41.29900 | -95.89204 | 996 ft | 132 kts | 323° |
| 2026-05-03 20:45 | 41.30800 | -95.90019 | 1606 ft | 162 kts | 324° |
| 2026-05-03 20:45 | 41.31723 | -95.90875 | 2867 ft | 163 kts | 325° |
| 2026-05-03 20:45 | 41.32667 | -95.91791 | 3923 ft | 176 kts | 324° |
| 2026-05-03 20:46 | 41.33696 | -95.92802 | 4342 ft | 196 kts | 324° |
| 2026-05-03 20:46 | 41.34868 | -95.93949 | 4594 ft | 224 kts | 324° |
| 2026-05-03 20:46 | 41.36180 | -95.95309 | 4659 ft | 255 kts | 319° |
| 2026-05-03 20:46 | 41.37481 | -95.97128 | 4911 ft | 283 kts | 309° |
| 2026-05-03 20:47 | 41.38616 | -95.99263 | 6024 ft | 276 kts | 303° |
| 2026-05-03 20:47 | 41.39553 | -96.01365 | 7559 ft | 255 kts | 300° |
| 2026-05-03 20:47 | 41.40413 | -96.03407 | 8653 ft | 254 kts | 298° |
| 2026-05-03 20:47 | 41.41293 | -96.05529 | 9348 ft | 267 kts | 299° |
| 2026-05-03 20:48 | 41.42179 | -96.07668 | 10446 ft | 258 kts | 298° |
| 2026-05-03 20:48 | 41.43056 | -96.09781 | 11226 ft | 267 kts | 297° |
| 2026-05-03 20:48 | 41.43992 | -96.12040 | 11515 ft | 290 kts | 296° |
| 2026-05-03 20:48 | 41.44994 | -96.14475 | 11641 ft | 315 kts | 296° |
| 2026-05-03 20:49 | 41.46081 | -96.17128 | 11766 ft | 338 kts | 296° |
| 2026-05-03 20:49 | 41.47237 | -96.19950 | 12111 ft | 351 kts | 297° |
| 2026-05-03 20:49 | 41.48404 | -96.22782 | 13116 ft | 345 kts | 296° |
| 2026-05-03 20:49 | 41.49565 | -96.25593 | 13799 ft | 350 kts | 296° |
| 2026-05-03 20:50 | 41.50747 | -96.28453 | 14512 ft | 351 kts | 296° |
| 2026-05-03 20:50 | 41.51936 | -96.31331 | 15156 ft | 356 kts | 296° |
| 2026-05-03 20:50 | 41.53137 | -96.34241 | 15847 ft | 360 kts | 297° |
| 2026-05-03 20:50 | 41.54350 | -96.37179 | 16596 ft | 363 kts | 297° |
| 2026-05-03 20:51 | 41.55576 | -96.40150 | 17336 ft | 367 kts | 297° |
| 2026-05-03 20:51 | 41.56815 | -96.43158 | 18087 ft | 371 kts | 297° |
| 2026-05-03 20:51 | 41.58069 | -96.46201 | 18755 ft | 375 kts | 297° |
| 2026-05-03 20:51 | 41.59336 | -96.49279 | 19320 ft | 382 kts | 297° |
| 2026-05-03 20:52 | 41.60601 | -96.52358 | 20041 ft | 386 kts | 297° |
| 2026-05-03 20:52 | 41.61897 | -96.55516 | 20779 ft | 390 kts | 297° |
| 2026-05-03 20:52 | 41.63208 | -96.58709 | 21503 ft | 394 kts | 297° |
| 2026-05-03 20:52 | 41.64532 | -96.61936 | 22223 ft | 398 kts | 297° |
| 2026-05-03 20:53 | 41.65870 | -96.65200 | 22929 ft | 403 kts | 297° |
| 2026-05-03 20:53 | 41.67223 | -96.68500 | 23604 ft | 407 kts | 297° |
| 2026-05-03 20:53 | 41.68586 | -96.71829 | 24260 ft | 408 kts | 297° |
| 2026-05-03 20:53 | 41.69954 | -96.75174 | 24919 ft | 410 kts | 297° |
| 2026-05-03 20:54 | 41.71328 | -96.78537 | 25398 ft | 416 kts | 297° |
| 2026-05-03 20:54 | 41.74190 | -96.85562 | 25659 ft | 441 kts | 297° |
| 2026-05-03 20:54 | 41.75662 | -96.89178 | 26304 ft | 440 kts | 297° |
| 2026-05-03 20:55 | 41.77116 | -96.92745 | 27346 ft | 432 kts | 297° |
| 2026-05-03 20:55 | 41.78547 | -96.96257 | 28360 ft | 425 kts | 297° |
| 2026-05-03 20:55 | 41.79954 | -96.99710 | 29370 ft | 419 kts | 297° |
| 2026-05-03 20:55 | 41.81323 | -97.03071 | 30313 ft | 413 kts | 297° |
| 2026-05-03 20:56 | 41.82684 | -97.06424 | 31179 ft | 407 kts | 297° |
| 2026-05-03 20:56 | 41.84024 | -97.09727 | 32055 ft | 401 kts | 297° |
| 2026-05-03 20:56 | 41.85345 | -97.12986 | 32970 ft | 395 kts | 297° |
| 2026-05-03 20:56 | 41.86646 | -97.16201 | 33882 ft | 389 kts | 296° |
| 2026-05-03 20:57 | 41.87929 | -97.19376 | 34492 ft | 387 kts | 296° |
| 2026-05-03 20:57 | 41.89214 | -97.22563 | 34961 ft | 389 kts | 296° |
| 2026-05-03 20:57 | 41.90503 | -97.25765 | 35436 ft | 390 kts | 297° |
| 2026-05-03 20:57 | 41.91796 | -97.28986 | 35894 ft | 392 kts | 297° |
| 2026-05-03 20:58 | 41.93092 | -97.32219 | 36359 ft | 394 kts | 297° |
| 2026-05-03 20:58 | 41.94389 | -97.35462 | 36868 ft | 395 kts | 297° |
| 2026-05-03 20:58 | 41.95690 | -97.38717 | 37327 ft | 397 kts | 297° |
| 2026-05-03 20:58 | 41.97001 | -97.41995 | 37715 ft | 401 kts | 297° |
| 2026-05-03 20:59 | 41.98331 | -97.45317 | 37898 ft | 405 kts | 297° |
| 2026-05-03 20:59 | 41.99669 | -97.48662 | 37929 ft | 407 kts | 297° |
| 2026-05-03 20:59 | 42.02353 | -97.55380 | 37909 ft | 407 kts | 297° |
| 2026-05-03 21:00 | 42.04577 | -97.60945 | 37911 ft | 406 kts | 297° |
| 2026-05-03 21:00 | 42.07662 | -97.68718 | 37918 ft | 404 kts | 297° |
| 2026-05-03 21:01 | 42.10299 | -97.75392 | 37925 ft | 403 kts | 297° |
| 2026-05-03 21:01 | 42.12935 | -97.82070 | 37928 ft | 404 kts | 297° |
| 2026-05-03 21:02 | 42.15572 | -97.88756 | 37932 ft | 405 kts | 297° |
| 2026-05-03 21:02 | 42.18223 | -97.95488 | 37935 ft | 407 kts | 297° |
| 2026-05-03 21:03 | 42.20877 | -98.02247 | 37929 ft | 408 kts | 297° |
| 2026-05-03 21:03 | 42.23518 | -98.09002 | 37939 ft | 406 kts | 297° |
| 2026-05-03 21:04 | 42.26158 | -98.15748 | 37935 ft | 407 kts | 297° |
| 2026-05-03 21:04 | 42.28794 | -98.22505 | 37938 ft | 406 kts | 296° |
| 2026-05-03 21:05 | 42.31415 | -98.29217 | 37944 ft | 407 kts | 297° |
| 2026-05-03 21:05 | 42.34056 | -98.35997 | 37920 ft | 408 kts | 296° |
| 2026-05-03 21:06 | 42.36698 | -98.42808 | 37932 ft | 409 kts | 296° |
| 2026-05-03 21:06 | 42.39337 | -98.49634 | 37934 ft | 409 kts | 296° |
| 2026-05-03 21:07 | 42.41964 | -98.56455 | 37941 ft | 409 kts | 296° |
| 2026-05-03 21:07 | 42.44589 | -98.63287 | 37940 ft | 409 kts | 296° |
| 2026-05-03 21:08 | 42.47232 | -98.70119 | 37940 ft | 409 kts | 297° |
| 2026-05-03 21:08 | 42.49913 | -98.76914 | 37936 ft | 409 kts | 297° |
| 2026-05-03 21:09 | 42.52578 | -98.83710 | 37941 ft | 408 kts | 296° |
| 2026-05-03 21:09 | 42.55245 | -98.90505 | 37932 ft | 408 kts | 296° |
| 2026-05-03 21:10 | 42.57909 | -98.97305 | 37934 ft | 408 kts | 296° |
| 2026-05-03 21:10 | 42.60542 | -99.04070 | 37925 ft | 408 kts | 296° |
| 2026-05-03 21:11 | 42.63185 | -99.10889 | 37916 ft | 408 kts | 296° |
| 2026-05-03 21:11 | 42.65843 | -99.17707 | 37945 ft | 408 kts | 296° |
| 2026-05-03 21:12 | 42.68502 | -99.24550 | 37925 ft | 411 kts | 296° |
| 2026-05-03 21:12 | 42.71171 | -99.31451 | 37928 ft | 412 kts | 296° |
| 2026-05-03 21:13 | 42.73840 | -99.38359 | 37920 ft | 412 kts | 296° |
| 2026-05-03 21:13 | 42.76501 | -99.45271 | 37925 ft | 412 kts | 296° |
| 2026-05-03 21:14 | 42.79140 | -99.52140 | 37919 ft | 412 kts | 296° |
| 2026-05-03 21:14 | 42.81793 | -99.59074 | 37927 ft | 413 kts | 296° |
| 2026-05-03 21:15 | 42.84446 | -99.66021 | 37934 ft | 414 kts | 296° |
| 2026-05-03 21:15 | 42.87109 | -99.73001 | 37925 ft | 416 kts | 296° |
| 2026-05-03 21:16 | 42.89784 | -99.80001 | 37926 ft | 416 kts | 296° |
| 2026-05-03 21:16 | 42.92439 | -99.87019 | 37923 ft | 416 kts | 296° |
| 2026-05-03 21:17 | 42.94635 | -99.92856 | 37922 ft | 416 kts | 296° |
| 2026-05-03 21:17 | 42.97734 | -100.01070 | 37927 ft | 416 kts | 296° |
| 2026-05-03 21:18 | 43.00382 | -100.08097 | 37928 ft | 417 kts | 296° |
| 2026-05-03 21:18 | 43.03037 | -100.15155 | 37930 ft | 418 kts | 296° |
| 2026-05-03 21:19 | 43.05677 | -100.22196 | 37911 ft | 419 kts | 296° |
| 2026-05-03 21:19 | 43.08323 | -100.29293 | 37926 ft | 419 kts | 296° |
| 2026-05-03 21:20 | 43.10966 | -100.36399 | 37922 ft | 419 kts | 296° |
| 2026-05-03 21:20 | 43.13617 | -100.43504 | 37928 ft | 419 kts | 296° |
| 2026-05-03 21:21 | 43.16252 | -100.50621 | 37919 ft | 420 kts | 296° |
| 2026-05-03 21:21 | 43.18900 | -100.57778 | 37889 ft | 422 kts | 297° |
| 2026-05-03 21:22 | 43.21551 | -100.64957 | 37907 ft | 421 kts | 296° |
| 2026-05-03 21:22 | 43.24188 | -100.72127 | 37903 ft | 421 kts | 296° |
| 2026-05-03 21:23 | 43.26820 | -100.79292 | 37905 ft | 421 kts | 296° |
| 2026-05-03 21:23 | 43.29437 | -100.86435 | 37904 ft | 421 kts | 296° |
| 2026-05-03 21:24 | 43.32060 | -100.93621 | 37898 ft | 422 kts | 296° |
| 2026-05-03 21:24 | 43.34693 | -101.00856 | 37911 ft | 425 kts | 296° |
| 2026-05-03 21:25 | 43.37341 | -101.08133 | 37907 ft | 426 kts | 296° |
| 2026-05-03 21:25 | 43.39981 | -101.15418 | 37912 ft | 426 kts | 296° |
| 2026-05-03 21:26 | 43.42615 | -101.22710 | 37911 ft | 426 kts | 296° |
| 2026-05-03 21:26 | 43.45243 | -101.30006 | 37914 ft | 426 kts | 296° |
| 2026-05-03 21:27 | 43.47871 | -101.37316 | 37907 ft | 427 kts | 296° |
| 2026-05-03 21:27 | 43.50491 | -101.44620 | 37913 ft | 429 kts | 296° |
| 2026-05-03 21:28 | 43.53134 | -101.52007 | 37903 ft | 430 kts | 296° |
| 2026-05-03 21:28 | 43.55774 | -101.59409 | 37909 ft | 430 kts | 296° |
| 2026-05-03 21:29 | 43.58411 | -101.66816 | 37901 ft | 430 kts | 296° |
| 2026-05-03 21:29 | 43.61043 | -101.74233 | 37902 ft | 430 kts | 296° |
| 2026-05-03 21:30 | 43.63669 | -101.81660 | 37904 ft | 431 kts | 296° |
| 2026-05-03 21:30 | 43.66306 | -101.89124 | 37903 ft | 434 kts | 296° |
| 2026-05-03 21:31 | 43.68502 | -101.95363 | 37895 ft | 434 kts | 296° |
| 2026-05-03 21:31 | 43.71138 | -102.02870 | 37900 ft | 434 kts | 296° |
| 2026-05-03 21:32 | 43.73765 | -102.10377 | 37893 ft | 434 kts | 296° |
| 2026-05-03 21:32 | 43.76375 | -102.17844 | 37897 ft | 433 kts | 296° |
| 2026-05-03 21:33 | 43.78997 | -102.25361 | 37908 ft | 434 kts | 296° |
| 2026-05-03 21:33 | 43.81620 | -102.32924 | 37892 ft | 436 kts | 296° |
| 2026-05-03 21:34 | 43.84241 | -102.40510 | 37901 ft | 436 kts | 296° |
| 2026-05-03 21:34 | 43.86871 | -102.48097 | 37897 ft | 436 kts | 296° |
| 2026-05-03 21:35 | 43.89487 | -102.55682 | 37897 ft | 436 kts | 296° |
| 2026-05-03 21:35 | 43.92097 | -102.63286 | 37909 ft | 436 kts | 296° |
| 2026-05-03 21:36 | 43.94689 | -102.70860 | 37918 ft | 438 kts | 296° |
| 2026-05-03 21:36 | 43.97301 | -102.78510 | 37921 ft | 439 kts | 296° |
| 2026-05-03 21:37 | 43.99914 | -102.86180 | 37949 ft | 439 kts | 296° |
| 2026-05-03 21:37 | 44.02521 | -102.93861 | 37954 ft | 439 kts | 296° |
| 2026-05-03 21:38 | 44.05119 | -103.01542 | 37952 ft | 439 kts | 296° |
| 2026-05-03 21:38 | 44.07722 | -103.09232 | 37966 ft | 439 kts | 296° |
| 2026-05-03 21:39 | 44.10297 | -103.16886 | 37880 ft | 439 kts | 296° |
| 2026-05-03 21:39 | 44.12882 | -103.24593 | 37881 ft | 439 kts | 296° |
| 2026-05-03 21:40 | 44.15465 | -103.32301 | 37886 ft | 439 kts | 296° |
| 2026-05-03 21:40 | 44.18041 | -103.40014 | 37885 ft | 439 kts | 295° |
| 2026-05-03 21:41 | 44.20612 | -103.47743 | 37892 ft | 439 kts | 296° |
| 2026-05-03 21:41 | 44.23182 | -103.55484 | 37880 ft | 441 kts | 295° |
| 2026-05-03 21:42 | 44.25752 | -103.63248 | 37888 ft | 442 kts | 295° |
| 2026-05-03 21:42 | 44.28308 | -103.70991 | 37892 ft | 442 kts | 295° |
| 2026-05-03 21:43 | 44.30866 | -103.78786 | 37933 ft | 441 kts | 295° |
| 2026-05-03 21:43 | 44.33433 | -103.86583 | 37933 ft | 441 kts | 295° |
| 2026-05-03 21:44 | 44.35985 | -103.94387 | 37932 ft | 442 kts | 295° |
| 2026-05-03 21:44 | 44.38535 | -104.02211 | 37920 ft | 443 kts | 295° |
| 2026-05-03 21:45 | 44.41091 | -104.10057 | 37904 ft | 443 kts | 295° |
| 2026-05-03 21:45 | 44.43636 | -104.17910 | 37898 ft | 443 kts | 295° |
| 2026-05-03 21:46 | 44.46159 | -104.25722 | 37903 ft | 443 kts | 295° |
| 2026-05-03 21:46 | 44.48695 | -104.33594 | 37904 ft | 443 kts | 295° |
| 2026-05-03 21:47 | 44.51227 | -104.41473 | 37899 ft | 443 kts | 295° |
| 2026-05-03 21:47 | 44.53750 | -104.49349 | 37896 ft | 443 kts | 295° |
| 2026-05-03 21:48 | 44.56270 | -104.57240 | 37902 ft | 443 kts | 295° |
| 2026-05-03 21:48 | 44.58790 | -104.65143 | 37897 ft | 444 kts | 295° |
| 2026-05-03 21:49 | 44.61296 | -104.73049 | 37898 ft | 443 kts | 295° |
| 2026-05-03 21:49 | 44.63803 | -104.80964 | 37899 ft | 443 kts | 295° |
| 2026-05-03 21:50 | 44.66283 | -104.88820 | 37892 ft | 443 kts | 295° |
| 2026-05-03 21:50 | 44.68769 | -104.96735 | 37894 ft | 443 kts | 295° |
| 2026-05-03 21:51 | 44.71254 | -105.04655 | 37889 ft | 443 kts | 295° |
| 2026-05-03 21:51 | 44.73735 | -105.12588 | 37891 ft | 443 kts | 295° |
| 2026-05-03 21:52 | 44.76207 | -105.20521 | 37891 ft | 443 kts | 295° |
| 2026-05-03 21:52 | 44.78673 | -105.28456 | 37888 ft | 442 kts | 294° |
| 2026-05-03 21:53 | 44.81132 | -105.36407 | 37855 ft | 442 kts | 294° |
| 2026-05-03 21:53 | 44.83585 | -105.44358 | 37877 ft | 443 kts | 294° |
| 2026-05-03 21:54 | 44.86036 | -105.52327 | 37875 ft | 443 kts | 294° |
| 2026-05-03 21:54 | 44.88494 | -105.60303 | 37867 ft | 443 kts | 294° |
| 2026-05-03 21:55 | 44.90940 | -105.68283 | 37870 ft | 443 kts | 294° |
| 2026-05-03 21:55 | 44.93381 | -105.76281 | 37862 ft | 443 kts | 294° |
| 2026-05-03 21:56 | 44.95794 | -105.84235 | 37844 ft | 443 kts | 294° |
| 2026-05-03 21:56 | 44.98220 | -105.92242 | 37856 ft | 444 kts | 294° |
| 2026-05-03 21:57 | 45.00643 | -106.00266 | 37854 ft | 444 kts | 294° |
| 2026-05-03 21:57 | 45.02847 | -106.08426 | 37866 ft | 444 kts | 289° |
| 2026-05-03 21:58 | 45.04901 | -106.16664 | 37857 ft | 445 kts | 292° |
| 2026-05-03 21:58 | 45.07258 | -106.24759 | 37857 ft | 444 kts | 294° |
| 2026-05-03 21:59 | 45.09659 | -106.32773 | 37837 ft | 445 kts | 294° |
| 2026-05-03 21:59 | 45.12066 | -106.40848 | 37848 ft | 445 kts | 294° |
| 2026-05-03 22:00 | 45.14482 | -106.48927 | 37869 ft | 445 kts | 294° |
| 2026-05-03 22:00 | 45.16900 | -106.57007 | 37855 ft | 446 kts | 294° |
| 2026-05-03 22:01 | 45.19316 | -106.65108 | 37864 ft | 446 kts | 294° |
| 2026-05-03 22:01 | 45.21732 | -106.73234 | 37860 ft | 447 kts | 294° |
| 2026-05-03 22:02 | 45.24141 | -106.81364 | 37863 ft | 447 kts | 294° |
| 2026-05-03 22:02 | 45.26545 | -106.89507 | 37868 ft | 448 kts | 294° |
| 2026-05-03 22:03 | 45.28945 | -106.97671 | 37873 ft | 448 kts | 294° |
| 2026-05-03 22:03 | 45.31345 | -107.05845 | 37878 ft | 449 kts | 294° |
| 2026-05-03 22:04 | 45.33738 | -107.14047 | 37883 ft | 449 kts | 294° |
| 2026-05-03 22:04 | 45.36124 | -107.22193 | 37874 ft | 449 kts | 294° |
| 2026-05-03 22:05 | 45.38509 | -107.30402 | 37865 ft | 449 kts | 294° |
| 2026-05-03 22:05 | 45.40892 | -107.38621 | 37876 ft | 450 kts | 293° |
| 2026-05-03 22:06 | 45.43276 | -107.46862 | 37873 ft | 450 kts | 293° |
| 2026-05-03 22:06 | 45.45650 | -107.55110 | 37870 ft | 450 kts | 293° |
| 2026-05-03 22:07 | 45.48012 | -107.63370 | 37868 ft | 450 kts | 293° |
| 2026-05-03 22:07 | 45.50373 | -107.71635 | 37872 ft | 450 kts | 293° |
| 2026-05-03 22:08 | 45.52735 | -107.79899 | 37850 ft | 450 kts | 293° |
| 2026-05-03 22:08 | 45.55089 | -107.88183 | 37871 ft | 451 kts | 293° |
| 2026-05-03 22:09 | 45.57443 | -107.96485 | 37865 ft | 452 kts | 293° |
| 2026-05-03 22:10 | 45.60960 | -108.08979 | 37866 ft | 452 kts | 293° |
| 2026-05-03 22:10 | 45.63295 | -108.17341 | 37870 ft | 452 kts | 293° |
| 2026-05-03 22:11 | 45.65635 | -108.25683 | 37866 ft | 452 kts | 293° |
| 2026-05-03 22:11 | 45.67957 | -108.34037 | 37858 ft | 452 kts | 293° |
| 2026-05-03 22:12 | 45.70286 | -108.42408 | 37859 ft | 453 kts | 293° |
| 2026-05-03 22:12 | 45.72598 | -108.50746 | 37894 ft | 454 kts | 293° |
| 2026-05-03 22:13 | 45.74915 | -108.59146 | 37890 ft | 454 kts | 293° |
| 2026-05-03 22:13 | 45.77227 | -108.67554 | 37890 ft | 454 kts | 293° |
| 2026-05-03 22:14 | 45.79532 | -108.75979 | 37848 ft | 454 kts | 292° |
| 2026-05-03 22:14 | 45.81829 | -108.84402 | 37852 ft | 454 kts | 293° |
| 2026-05-03 22:15 | 45.84124 | -108.92850 | 37844 ft | 455 kts | 293° |
| 2026-05-03 22:15 | 45.86424 | -109.01324 | 37844 ft | 454 kts | 293° |
| 2026-05-03 22:16 | 45.88800 | -109.09580 | 37846 ft | 450 kts | 295° |
| 2026-05-03 22:16 | 45.91210 | -109.17943 | 37847 ft | 455 kts | 294° |
| 2026-05-03 22:17 | 45.93504 | -109.26434 | 37839 ft | 456 kts | 293° |
| 2026-05-03 22:17 | 45.95779 | -109.34938 | 37834 ft | 456 kts | 293° |
| 2026-05-03 22:18 | 45.98054 | -109.43442 | 37840 ft | 456 kts | 293° |
| 2026-05-03 22:18 | 46.00319 | -109.51994 | 37846 ft | 457 kts | 293° |
| 2026-05-03 22:19 | 46.02197 | -109.59089 | 37846 ft | 456 kts | 293° |
| 2026-05-03 22:19 | 46.04069 | -109.66191 | 37843 ft | 456 kts | 293° |